createdAt,value
2022-08-06T00:03:48.547Z,4.47
2022-08-06T00:18:48.604Z,5.02
2022-08-06T00:33:51.837Z,4.51
2022-08-06T00:48:53.663Z,4.51
2022-08-06T01:03:51.009Z,4.78
2022-08-06T01:18:52.600Z,4.82
2022-08-06T01:33:48.459Z,5.44
2022-08-06T01:48:48.660Z,5.01
2022-08-06T02:03:49.891Z,5.38
2022-08-06T02:18:48.845Z,4.9
2022-08-06T02:34:01.730Z,5.33
2022-08-06T02:48:48.976Z,6.63
2022-08-06T03:03:53.832Z,5.97
2022-08-06T03:18:49.138Z,6.89
2022-08-06T03:33:53.619Z,6.5
2022-08-06T03:48:48.556Z,6.26
2022-08-06T04:03:48.636Z,7.62
2022-08-06T04:18:49.685Z,6.84
2022-08-06T04:33:51.765Z,6.11
2022-08-06T04:48:51.071Z,6.42
2022-08-06T05:03:53.317Z,7.28
2022-08-06T05:19:16.427Z,7.09
2022-08-06T05:33:49.189Z,6.64
2022-08-06T05:48:52.020Z,5.89
2022-08-06T06:03:48.802Z,6.13
2022-08-06T06:18:53.919Z,7.01
2022-08-06T06:33:51.074Z,6.14
2022-08-06T06:48:48.485Z,6.52
2022-08-06T07:03:48.998Z,6.43
2022-08-06T07:18:49.926Z,7.55
2022-08-06T07:34:01.437Z,7.77
2022-08-06T07:48:52.492Z,8.13
2022-08-06T08:03:56.519Z,7.5
2022-08-06T08:18:48.475Z,6.67
2022-08-06T08:33:48.433Z,6.67
2022-08-06T08:48:49.236Z,6.01
2022-08-06T09:03:51.361Z,6.45
2022-08-06T09:18:49.037Z,6.69
2022-08-06T09:34:18.687Z,6.46
2022-08-06T09:49:05.676Z,2.68
2022-08-06T10:04:01.773Z,1.71
2022-08-06T10:18:54.584Z,1.43
2022-08-06T10:33:56.197Z,0.74
2022-08-06T10:49:01.829Z,1.52
2022-08-06T11:03:48.755Z,3
2022-08-06T11:18:48.633Z,4.58
2022-08-06T11:33:48.645Z,5.98
2022-08-06T11:48:48.687Z,5.78
2022-08-06T12:03:48.815Z,6.79
2022-08-06T12:18:48.397Z,7.07
2022-08-06T12:33:49.183Z,7.8
2022-08-06T12:48:48.717Z,8.73
2022-08-06T13:03:49.226Z,8.84
2022-08-06T13:18:54.053Z,10.62
2022-08-06T13:34:04.487Z,13.23
2022-08-06T13:48:48.951Z,13.85
2022-08-06T14:03:49.371Z,13.32
2022-08-06T14:18:59.593Z,13.78
2022-08-06T14:33:59.413Z,15.4
2022-08-06T14:48:51.173Z,13.27
2022-08-06T15:03:48.474Z,11.48
2022-08-06T15:19:08.991Z,12.3
2022-08-06T15:33:48.608Z,10.88
2022-08-06T15:48:53.680Z,9.57
2022-08-06T16:03:56.586Z,8.74
2022-08-06T16:18:52.683Z,6.88
2022-08-06T16:33:53.467Z,5.28
2022-08-06T16:48:49.272Z,6.06
2022-08-06T17:03:48.635Z,5.24
2022-08-06T17:18:49.520Z,5.02
2022-08-06T17:33:48.958Z,3.85
2022-08-06T17:48:49.133Z,4.78
2022-08-06T18:03:50.013Z,4.66
2022-08-06T18:18:48.700Z,6.1
2022-08-06T18:33:53.650Z,5.37
2022-08-06T18:48:49.065Z,5.37
2022-08-06T19:03:50.608Z,5.48
2022-08-06T19:18:51.225Z,5.05
2022-08-06T19:33:48.673Z,7.59
2022-08-06T19:48:48.842Z,7.24
2022-08-06T20:03:51.916Z,5.68
2022-08-06T20:18:48.893Z,6.96
2022-08-06T20:33:57.737Z,9.37
2022-08-06T20:48:49.309Z,10.37
2022-08-06T21:05:12.381Z,9.36
2022-08-06T21:18:48.594Z,8.24
2022-08-06T21:33:52.371Z,8.39
2022-08-06T21:48:48.979Z,11.62
2022-08-06T22:04:35.601Z,12.16
2022-08-06T22:18:49.046Z,10.67
2022-08-06T22:33:58.921Z,12.04
2022-08-06T22:48:48.681Z,13.95
2022-08-06T23:03:49.389Z,14.85
2022-08-06T23:18:48.999Z,17.32
2022-08-06T23:33:50.020Z,18.18
2022-08-06T23:48:51.797Z,17.39
